Time;durP1;ratioP1;P1;durP2;ratioP2;P2;SDS_P1;SDS_P2;PMS_P1;PMS_P2;Temp;Humidity;BMP_temperature;BMP_pressure;BME280_temperature;BME280_humidity;BME280_pressure;Samples;Min_cycle;Max_cycle;Signal;HPM_P1;HPM_P2
2024/03/19 00:01:35;;;;;;;8.10;3.88;;;;;;;8.81;100.00;101761.81;6085059;19;20007;-72
2024/03/19 00:03:39;;;;;;;10.88;4.32;;;;;;;8.80;100.00;101754.88;6084432;19;20602;-74
2024/03/19 00:05:43;;;;;;;10.32;4.00;;;;;;;8.80;100.00;101760.09;6080226;19;20013;-72
2024/03/19 00:07:47;;;;;;;10.75;3.80;;;;;;;8.77;100.00;101755.78;6083707;19;20486;-72
2024/03/19 00:09:53;;;;;;;16.33;4.45;;;;;;;8.79;100.00;101759.25;6083989;19;20007;-72
2024/03/19 00:11:57;;;;;;;12.13;4.57;;;;;;;8.90;100.00;101752.91;6083524;19;20034;-74
2024/03/19 00:14:01;;;;;;;10.38;3.67;;;;;;;8.87;100.00;101747.75;6083527;19;20002;-73
2024/03/19 00:16:08;;;;;;;10.05;4.95;;;;;;;9.00;100.00;101751.84;6082731;19;20490;-73
2024/03/19 00:18:12;;;;;;;8.60;3.83;;;;;;;9.01;100.00;101749.22;6081421;19;20007;-74
2024/03/19 00:20:14;;;;;;;10.57;4.43;;;;;;;9.13;100.00;101742.00;6082135;19;20068;-75
2024/03/19 00:22:17;;;;;;;12.55;4.35;;;;;;;9.11;100.00;101744.66;6084551;19;20083;-73
2024/03/19 00:24:24;;;;;;;10.48;4.30;;;;;;;9.24;100.00;101742.63;6082755;19;20387;-73
2024/03/19 00:26:30;;;;;;;9.30;4.22;;;;;;;9.27;100.00;101745.22;6084938;19;20400;-73
2024/03/19 00:28:34;;;;;;;9.45;4.22;;;;;;;9.23;100.00;101747.00;6083614;19;20021;-73
2024/03/19 00:30:38;;;;;;;8.57;5.05;;;;;;;9.24;100.00;101747.88;6080425;19;20018;-74
2024/03/19 00:32:47;;;;;;;9.18;4.28;;;;;;;9.24;100.00;101747.88;6083542;19;20017;-74
2024/03/19 00:34:50;;;;;;;10.07;4.10;;;;;;;9.29;100.00;101734.69;6082197;19;20026;-73
2024/03/19 00:36:55;;;;;;;9.73;4.25;;;;;;;9.34;100.00;101735.44;6083890;19;20018;-74
2024/03/19 00:38:58;;;;;;;9.57;4.22;;;;;;;9.36;100.00;101734.53;6085201;19;20007;-74
2024/03/19 00:41:04;;;;;;;10.38;4.65;;;;;;;9.36;100.00;101734.53;6085911;19;20018;-74
2024/03/19 00:43:08;;;;;;;9.25;4.43;;;;;;;9.39;100.00;101733.59;6085589;19;20042;-74
2024/03/19 00:45:13;;;;;;;12.13;4.55;;;;;;;9.36;100.00;101736.28;6085781;19;20010;-74
2024/03/19 00:47:14;;;;;;;10.38;4.47;;;;;;;9.37;100.00;101738.88;6084453;19;20026;-73
2024/03/19 00:49:20;;;;;;;11.23;4.63;;;;;;;9.37;100.00;101730.13;6084433;19;20014;-75
2024/03/19 00:51:24;;;;;;;8.10;4.35;;;;;;;9.37;100.00;101735.38;6084530;19;20060;-73
2024/03/19 00:53:28;;;;;;;10.38;4.95;;;;;;;9.37;100.00;101732.75;6079303;19;20038;-73
2024/03/19 00:55:33;;;;;;;9.35;4.93;;;;;;;9.37;100.00;101731.03;6084052;19;20034;-73
2024/03/19 00:57:35;;;;;;;9.48;4.35;;;;;;;9.35;100.00;101724.94;6083638;19;20003;-72
2024/03/19 00:59:38;;;;;;;10.45;5.10;;;;;;;9.39;100.00;101729.19;6086112;19;20435;-73
2024/03/19 01:01:42;;;;;;;9.52;4.45;;;;;;;9.43;100.00;101728.25;6085856;19;20006;-74
2024/03/19 01:03:47;;;;;;;14.55;4.38;;;;;;;9.39;100.00;101726.56;6086428;19;20006;-73
2024/03/19 01:05:56;;;;;;;13.10;5.18;;;;;;;9.47;100.00;101729.03;6086097;19;20006;-72
2024/03/19 01:07:58;;;;;;;9.55;4.95;;;;;;;9.47;100.00;101725.56;6085158;19;20007;-73
2024/03/19 01:10:02;;;;;;;12.43;4.95;;;;;;;9.48;100.00;101729.91;6078920;19;19999;-73
2024/03/19 01:12:09;;;;;;;7.50;3.85;;;;;;;9.47;100.00;101723.78;6080652;19;20010;-73
2024/03/19 01:14:13;;;;;;;10.52;5.07;;;;;;;9.48;100.00;101728.16;6082370;19;20018;-74
2024/03/19 01:16:15;;;;;;;7.45;4.35;;;;;;;9.52;100.00;101723.69;6082264;19;20057;-74
2024/03/19 01:18:22;;;;;;;14.10;5.38;;;;;;;9.53;100.00;101723.69;6082602;19;20007;-73
2024/03/19 01:20:26;;;;;;;11.23;4.40;;;;;;;9.55;100.00;101724.47;6081924;19;20003;-74
2024/03/19 01:22:32;;;;;;;8.82;4.78;;;;;;;9.56;100.00;101731.47;6083775;19;20023;-74
2024/03/19 01:24:33;;;;;;;10.68;5.30;;;;;;;9.52;100.00;101727.19;6081647;19;20011;-74
2024/03/19 01:26:38;;;;;;;10.40;4.97;;;;;;;9.54;100.00;101732.41;6082140;19;20037;-74
2024/03/19 01:28:42;;;;;;;13.43;5.00;;;;;;;9.57;100.00;101722.69;6079892;19;20011;-72
2024/03/19 01:30:47;;;;;;;11.07;4.93;;;;;;;9.59;100.00;101723.53;6082143;19;20030;-73
2024/03/19 01:32:48;;;;;;;8.43;4.90;;;;;;;9.57;100.00;101727.94;6083317;19;20038;-73
2024/03/19 01:34:52;;;;;;;9.82;4.55;;;;;;;9.56;100.00;101730.63;6082905;19;20035;-73
2024/03/19 01:36:56;;;;;;;10.02;4.88;;;;;;;9.62;100.00;101730.47;6083331;19;20007;-73
2024/03/19 01:39:00;;;;;;;11.25;4.13;;;;;;;9.64;100.00;101724.28;6081728;19;20471;-73
2024/03/19 01:41:04;;;;;;;10.43;4.22;;;;;;;9.66;100.00;101721.63;6083689;19;20015;-74
2024/03/19 01:43:13;;;;;;;10.35;3.95;;;;;;;9.65;100.00;101727.78;6088046;19;20002;-73
2024/03/19 01:45:22;;;;;;;11.27;4.85;;;;;;;9.64;100.00;101720.81;6087069;19;20010;-74
2024/03/19 01:47:26;;;;;;;10.07;4.55;;;;;;;9.58;100.00;101724.41;6087952;19;20006;-73
2024/03/19 01:49:31;;;;;;;9.38;3.50;;;;;;;9.59;100.00;101726.16;6088643;19;20043;-73
2024/03/19 01:51:36;;;;;;;10.85;3.97;;;;;;;9.65;100.00;101725.16;6089644;19;20010;-74
2024/03/19 01:53:40;;;;;;;6.60;3.63;;;;;;;9.65;100.00;101728.63;6087597;19;20011;-73
2024/03/19 01:55:46;;;;;;;8.02;3.58;;;;;;;9.59;100.00;101726.16;6088973;19;20010;-73
2024/03/19 01:57:48;;;;;;;8.45;3.53;;;;;;;9.58;100.00;101724.41;6088209;19;20007;-73
2024/03/19 01:59:54;;;;;;;7.68;3.38;;;;;;;9.59;100.00;101723.53;6087277;19;20022;-73
2024/03/19 02:01:57;;;;;;;11.30;4.65;;;;;;;9.60;100.00;101727.88;6087201;19;20010;-73
2024/03/19 02:04:01;;;;;;;10.15;3.30;;;;;;;9.63;100.00;101725.19;6085395;19;20056;-73
2024/03/19 02:06:05;;;;;;;9.02;3.85;;;;;;;9.62;100.00;101725.22;6082772;19;20003;-73
2024/03/19 02:08:07;;;;;;;5.22;2.85;;;;;;;9.53;100.00;101721.06;6086083;19;20014;-74
2024/03/19 02:10:13;;;;;;;10.37;4.17;;;;;;;9.55;100.00;101727.09;6085553;19;20039;-75
2024/03/19 02:12:20;;;;;;;9.85;3.38;;;;;;;9.57;100.00;101721.84;6086017;19;20014;-74
2024/03/19 02:14:27;;;;;;;5.85;3.25;;;;;;;9.59;100.00;101728.78;6086959;19;20010;-74
2024/03/19 02:16:31;;;;;;;8.93;3.70;;;;;;;9.66;100.00;101726.88;6086923;19;20014;-74
2024/03/19 02:18:33;;;;;;;8.50;3.63;;;;;;;9.66;100.00;101722.50;6084388;19;20042;-74
2024/03/19 02:20:36;;;;;;;9.52;3.97;;;;;;;9.65;100.00;101719.91;6083334;19;20525;-75
2024/03/19 02:22:43;;;;;;;8.48;3.58;;;;;;;9.60;100.00;101712.13;6086059;19;20063;-74
2024/03/19 02:24:47;;;;;;;6.75;3.58;;;;;;;9.59;100.00;101710.41;6083846;19;20368;-74
2024/03/19 02:26:52;;;;;;;6.75;3.50;;;;;;;9.55;100.00;101714.00;6085432;19;20529;-73
2024/03/19 02:28:53;;;;;;;7.38;2.97;;;;;;;9.55;100.00;101711.38;6086644;19;20295;-74
2024/03/19 02:30:58;;;;;;;6.72;3.03;;;;;;;9.51;100.00;101717.59;6086593;19;20014;-74
2024/03/19 02:33:02;;;;;;;7.55;3.15;;;;;;;9.52;100.00;101706.19;6087660;19;20002;-73
2024/03/19 02:35:06;;;;;;;7.18;3.35;;;;;;;9.53;100.00;101715.81;6084872;19;20011;-74
2024/03/19 02:37:10;;;;;;;6.90;2.90;;;;;;;9.51;100.00;101707.09;6085162;19;20045;-75
2024/03/19 02:39:15;;;;;;;11.88;3.40;;;;;;;9.53;100.00;101699.19;6086828;19;20002;-75
2024/03/19 02:41:19;;;;;;;5.55;2.95;;;;;;;9.53;100.00;101705.31;6086494;19;19999;-73
2024/03/19 02:43:20;;;;;;;6.68;2.85;;;;;;;9.52;100.00;101695.69;6085103;19;20018;-74
2024/03/19 02:45:27;;;;;;;7.53;2.80;;;;;;;9.51;100.00;101703.63;6087071;19;20014;-73
2024/03/19 02:47:29;;;;;;;6.85;3.58;;;;;;;9.54;100.00;101696.53;6087435;19;20007;-74
2024/03/19 02:49:33;;;;;;;6.40;2.65;;;;;;;9.50;100.00;101700.09;6088428;19;20450;-72
2024/03/19 02:51:34;;;;;;;7.22;2.70;;;;;;;9.46;100.00;101703.72;6085738;19;20034;-74
2024/03/19 02:53:38;;;;;;;4.82;2.63;;;;;;;9.48;100.00;101701.94;6083458;19;20390;-73
2024/03/19 02:55:44;;;;;;;7.10;2.78;;;;;;;9.45;100.00;101694.09;6085436;19;20010;-74
2024/03/19 02:57:48;;;;;;;6.47;3.00;;;;;;;9.44;100.00;101688.00;6086551;19;20530;-74
2024/03/19 02:59:49;;;;;;;6.65;2.85;;;;;;;9.41;100.00;101679.34;6088906;19;20002;-73
2024/03/19 03:01:54;;;;;;;4.88;2.95;;;;;;;9.39;100.00;101691.63;6086837;19;20002;-74
2024/03/19 03:03:55;;;;;;;4.80;2.95;;;;;;;9.35;100.00;101695.22;6084748;19;19998;-74
2024/03/19 03:05:59;;;;;;;8.80;3.25;;;;;;;9.33;100.00;101691.75;6087763;19;20014;-74
2024/03/19 03:08:05;;;;;;;8.85;3.40;;;;;;;9.34;100.00;101690.84;6086959;19;20013;-73
2024/03/19 03:10:09;;;;;;;7.45;3.22;;;;;;;9.39;100.00;101699.50;6087775;19;20006;-73
2024/03/19 03:12:18;;;;;;;6.28;2.85;;;;;;;9.35;100.00;101695.22;6083859;19;20006;-75
2024/03/19 03:14:20;;;;;;;10.30;3.75;;;;;;;9.35;100.00;101706.56;6086739;19;20006;-71
2024/03/19 03:16:24;;;;;;;8.25;3.30;;;;;;;9.35;100.00;101703.09;6086025;19;20367;-73
2024/03/19 03:18:28;;;;;;;8.65;3.97;;;;;;;9.42;100.00;101702.03;6083028;19;20613;-73
2024/03/19 03:20:29;;;;;;;6.68;3.50;;;;;;;9.42;100.00;101702.91;6083859;19;20010;-75
2024/03/19 03:22:33;;;;;;;9.20;3.47;;;;;;;9.46;100.00;101708.97;6085850;19;20010;-73
2024/03/19 03:24:34;;;;;;;10.43;3.95;;;;;;;9.47;100.00;101710.66;6084476;19;20002;-73
2024/03/19 03:26:38;;;;;;;7.55;3.58;;;;;;;9.55;100.00;101700.88;6084732;19;20013;-72
2024/03/19 03:28:45;;;;;;;10.50;4.07;;;;;;;9.55;100.00;101703.50;6085004;19;20019;-76
2024/03/19 03:30:49;;;;;;;8.10;3.63;;;;;;;9.52;100.00;101708.81;6084691;19;20051;-73
2024/03/19 03:32:53;;;;;;;9.32;3.80;;;;;;;9.54;100.00;101717.53;6085680;19;20045;-71
2024/03/19 03:34:57;;;;;;;8.52;3.42;;;;;;;9.51;100.00;101706.25;6084915;19;20011;-73
2024/03/19 03:37:01;;;;;;;13.48;4.57;;;;;;;9.57;100.00;101706.09;6087112;19;20015;-72
2024/03/19 03:39:04;;;;;;;9.68;4.38;;;;;;;9.54;100.00;101712.28;6087111;19;20010;-72
2024/03/19 03:41:08;;;;;;;10.52;3.80;;;;;;;9.58;100.00;101713.91;6085901;19;20339;-72
2024/03/19 03:43:13;;;;;;;9.52;3.70;;;;;;;9.55;100.00;101719.22;6086906;19;20003;-73
2024/03/19 03:45:21;;;;;;;8.07;3.53;;;;;;;9.54;100.00;101711.41;6086980;19;20388;-75
2024/03/19 03:47:25;;;;;;;6.45;3.20;;;;;;;9.54;100.00;101719.28;6087332;19;20015;-72
2024/03/19 03:49:29;;;;;;;7.70;3.72;;;;;;;9.56;100.00;101720.97;6086524;19;20046;-72
2024/03/19 03:51:33;;;;;;;8.70;3.67;;;;;;;9.59;100.00;101718.28;6087845;19;20046;-72
2024/03/19 03:53:37;;;;;;;7.35;3.20;;;;;;;9.59;100.00;101710.41;6081636;19;20007;-72
2024/03/19 03:55:41;;;;;;;6.53;2.88;;;;;;;9.65;100.00;101718.13;6085366;19;20050;-72
2024/03/19 03:57:45;;;;;;;6.32;2.55;;;;;;;9.66;100.00;101717.25;6086573;19;20010;-72
2024/03/19 03:59:49;;;;;;;5.70;2.85;;;;;;;9.63;100.00;101714.69;6086196;19;20598;-75
2024/03/19 04:01:55;;;;;;;6.50;3.25;;;;;;;9.63;100.00;101717.31;6084672;19;20002;-73
2024/03/19 04:03:59;;;;;;;8.77;3.13;;;;;;;9.64;100.00;101719.03;6084976;19;20036;-73
2024/03/19 04:06:03;;;;;;;7.07;2.72;;;;;;;9.60;100.00;101722.63;6084940;19;20018;-74
2024/03/19 04:08:09;;;;;;;7.53;2.95;;;;;;;9.67;100.00;101721.59;6086826;19;20006;-74
2024/03/19 04:10:14;;;;;;;8.02;3.20;;;;;;;9.70;100.00;101727.69;6084002;19;20076;-74
2024/03/19 04:12:18;;;;;;;10.93;3.00;;;;;;;9.71;100.00;101725.00;6084281;19;20263;-74
2024/03/19 04:14:22;;;;;;;12.45;3.75;;;;;;;9.73;100.00;101730.22;6085467;19;20038;-73
2024/03/19 04:16:24;;;;;;;8.98;2.75;;;;;;;9.70;100.00;101728.53;6086339;19;20475;-72
2024/03/19 04:18:30;;;;;;;10.40;3.28;;;;;;;9.66;100.00;101730.38;6086883;19;20590;-72
2024/03/19 04:20:31;;;;;;;6.30;2.70;;;;;;;9.71;100.00;101737.28;6085421;19;20267;-74
2024/03/19 04:22:38;;;;;;;7.97;2.85;;;;;;;9.69;100.00;101734.69;6085122;19;20007;-73
2024/03/19 04:24:42;;;;;;;5.93;2.72;;;;;;;9.66;100.00;101732.13;6084591;19;20010;-73
2024/03/19 04:26:46;;;;;;;6.88;3.10;;;;;;;9.68;100.00;101741.69;6082440;19;20018;-74
2024/03/19 04:28:50;;;;;;;5.97;3.15;;;;;;;9.64;100.00;101737.41;6082965;19;20522;-74
2024/03/19 04:30:54;;;;;;;7.93;3.08;;;;;;;9.71;100.00;101729.41;6084694;19;20023;-74
2024/03/19 04:32:58;;;;;;;6.40;2.88;;;;;;;9.65;100.00;101735.66;6083784;19;20018;-73
2024/03/19 04:35:04;;;;;;;11.25;3.08;;;;;;;9.67;100.00;101739.97;6083481;19;20404;-74
2024/03/19 04:37:06;;;;;;;7.93;3.10;;;;;;;9.70;100.00;101732.94;6083272;19;20042;-75
2024/03/19 04:39:13;;;;;;;8.63;2.45;;;;;;;9.65;100.00;101736.50;6083019;19;20018;-73
2024/03/19 04:41:16;;;;;;;5.72;2.53;;;;;;;9.76;100.00;101727.53;6082522;19;20046;-74
2024/03/19 04:43:20;;;;;;;8.05;3.25;;;;;;;9.71;100.00;101730.25;6084233;19;20015;-74
2024/03/19 04:45:26;;;;;;;3.90;2.33;;;;;;;9.72;100.00;101731.16;6082658;19;20021;-74
2024/03/19 04:47:30;;;;;;;9.10;2.70;;;;;;;9.69;100.00;101732.06;6084201;19;20010;-74
2024/03/19 04:49:31;;;;;;;4.70;2.60;;;;;;;9.70;100.00;101739.03;6083322;19;20010;-73
2024/03/19 04:51:37;;;;;;;6.05;2.67;;;;;;;9.73;100.00;101740.72;6082762;19;20012;-75
2024/03/19 04:53:41;;;;;;;6.80;2.55;;;;;;;9.71;100.00;101739.91;6082281;19;20017;-74
2024/03/19 04:55:45;;;;;;;4.15;2.22;;;;;;;9.71;100.00;101740.75;6083225;19;20006;-72
2024/03/19 04:57:46;;;;;;;6.07;2.53;;;;;;;9.71;100.00;101739.91;6082528;19;20010;-72
2024/03/19 04:59:51;;;;;;;6.20;2.78;;;;;;;9.71;100.00;101745.16;6083841;19;20347;-72
2024/03/19 05:01:55;;;;;;;6.55;3.00;;;;;;;9.71;100.00;101745.16;6081506;19;20306;-72
2024/03/19 05:03:56;;;;;;;10.32;3.45;;;;;;;9.80;100.00;101739.69;6084953;19;20006;-72
2024/03/19 05:06:00;;;;;;;3.83;2.33;;;;;;;9.76;100.00;101744.13;6082915;19;20022;-73
2024/03/19 05:08:07;;;;;;;6.45;2.70;;;;;;;9.76;100.00;101738.03;6084387;19;20369;-72
2024/03/19 05:10:09;;;;;;;4.45;2.35;;;;;;;9.76;100.00;101738.03;6085135;19;20003;-72
2024/03/19 05:12:13;;;;;;;7.72;2.78;;;;;;;9.80;100.00;101730.06;6082434;19;20007;-72
2024/03/19 05:14:16;;;;;;;7.35;2.83;;;;;;;9.85;100.00;101727.34;6083281;19;20003;-73
2024/03/19 05:16:20;;;;;;;6.57;2.47;;;;;;;9.81;100.00;101731.78;6085727;19;20003;-73
2024/03/19 05:18:27;;;;;;;7.35;2.53;;;;;;;9.88;100.00;101728.13;6090508;19;20018;-74
2024/03/19 05:20:31;;;;;;;5.93;2.80;;;;;;;9.86;100.00;101736.94;6086264;19;20006;-72
2024/03/19 05:22:35;;;;;;;7.43;3.25;;;;;;;9.87;100.00;101734.28;6086248;19;20099;-72
2024/03/19 05:24:41;;;;;;;7.78;2.55;;;;;;;9.84;100.00;101734.31;6087067;19;20030;-73
2024/03/19 05:26:45;;;;;;;7.32;3.08;;;;;;;9.85;100.00;101730.81;6088444;19;20621;-73
2024/03/19 05:28:49;;;;;;;8.88;2.88;;;;;;;9.89;100.00;101734.22;6088632;19;20011;-73
2024/03/19 05:30:53;;;;;;;6.32;2.72;;;;;;;9.85;100.00;101722.09;6086039;19;20010;-73
2024/03/19 05:32:54;;;;;;;6.35;2.83;;;;;;;9.88;100.00;101732.50;6087471;19;20002;-72
2024/03/19 05:34:58;;;;;;;6.38;2.70;;;;;;;9.88;100.00;101732.50;6088477;19;20011;-72
2024/03/19 05:37:01;;;;;;;6.47;2.47;;;;;;;9.88;100.00;101732.50;6087702;19;20014;-71
2024/03/19 05:39:09;;;;;;;5.93;2.67;;;;;;;9.88;100.00;101735.13;6087177;19;20015;-74
2024/03/19 05:41:18;;;;;;;6.40;2.80;;;;;;;9.92;100.00;101733.28;6087448;19;20007;-73
2024/03/19 05:43:23;;;;;;;7.13;2.95;;;;;;;9.92;100.00;101739.41;6087917;19;20464;-72
2024/03/19 05:45:27;;;;;;;11.35;3.35;;;;;;;9.94;100.00;101732.34;6088892;19;20011;-72
2024/03/19 05:47:31;;;;;;;6.07;2.95;;;;;;;9.95;100.00;101733.22;6087647;19;20003;-72
2024/03/19 05:49:38;;;;;;;5.57;2.47;;;;;;;9.94;100.00;101739.38;6086339;19;20194;-72
2024/03/19 05:51:39;;;;;;;6.05;2.80;;;;;;;9.93;100.00;101742.91;6087344;19;20006;-73
2024/03/19 05:53:43;;;;;;;8.40;3.03;;;;;;;9.92;100.00;101734.16;6087160;19;20538;-73
2024/03/19 05:55:50;;;;;;;8.18;2.63;;;;;;;9.88;100.00;101737.75;6089184;19;20007;-73
2024/03/19 05:57:57;;;;;;;5.70;2.72;;;;;;;9.87;100.00;101736.91;6087527;19;20003;-76
2024/03/19 05:59:59;;;;;;;6.10;2.85;;;;;;;9.85;100.00;101743.94;6088219;19;20513;-72
2024/03/19 06:02:06;;;;;;;6.07;2.83;;;;;;;9.87;100.00;101738.63;6088290;19;20009;-74
2024/03/19 06:04:10;;;;;;;5.88;2.58;;;;;;;9.86;100.00;101745.66;6086679;19;20449;-75
2024/03/19 06:06:11;;;;;;;6.88;2.75;;;;;;;9.92;100.00;101744.66;6088550;19;20010;-74
2024/03/19 06:08:15;;;;;;;6.63;2.83;;;;;;;9.94;100.00;101742.84;6087954;19;20478;-73
2024/03/19 06:10:22;;;;;;;7.93;3.28;;;;;;;9.92;100.00;101751.66;6088382;19;20003;-72
2024/03/19 06:12:26;;;;;;;4.40;2.80;;;;;;;9.90;100.00;101751.72;6088295;19;20039;-72
2024/03/19 06:14:33;;;;;;;7.05;2.90;;;;;;;9.92;100.00;101747.28;6088508;19;20021;-73
2024/03/19 06:16:37;;;;;;;5.78;3.20;;;;;;;9.99;100.00;101741.00;6088701;19;20002;-72
2024/03/19 06:18:41;;;;;;;9.55;3.00;;;;;;;9.99;100.00;101746.25;6087914;19;20078;-73
2024/03/19 06:20:43;;;;;;;8.05;2.88;;;;;;;10.05;100.00;101745.22;6086960;19;20021;-75
2024/03/19 06:22:52;;;;;;;12.60;3.08;;;;;;;10.07;100.00;101752.16;6080893;19;20030;-72
2024/03/19 06:24:53;;;;;;;6.65;2.72;;;;;;;10.05;100.00;101751.34;6087277;19;20006;-74
2024/03/19 06:26:58;;;;;;;7.78;3.10;;;;;;;10.14;100.00;101745.03;6087590;19;20011;-72
2024/03/19 06:29:03;;;;;;;5.80;2.65;;;;;;;10.18;100.00;101756.31;6084611;19;20051;-73
2024/03/19 06:31:10;;;;;;;8.77;2.85;;;;;;;10.17;100.00;101758.06;6088075;19;20010;-72
2024/03/19 06:33:12;;;;;;;6.45;2.65;;;;;;;10.18;100.00;101757.16;6087401;19;20003;-71
2024/03/19 06:35:16;;;;;;;5.70;2.78;;;;;;;10.19;100.00;101758.03;6086803;19;20011;-72
2024/03/19 06:37:20;;;;;;;9.77;3.03;;;;;;;10.24;100.00;101764.03;6087276;19;20002;-72
2024/03/19 06:39:27;;;;;;;8.48;2.70;;;;;;;10.27;100.00;101761.34;6084883;19;20061;-72
2024/03/19 06:41:31;;;;;;;7.95;3.33;;;;;;;10.29;100.00;101764.81;6085372;19;20014;-72
2024/03/19 06:43:40;;;;;;;3.65;2.40;;;;;;;10.30;100.00;101761.31;6086359;19;20018;-74
2024/03/19 06:45:46;;;;;;;7.25;2.75;;;;;;;10.31;100.00;101768.28;6086149;19;20002;-72
2024/03/19 06:47:53;;;;;;;5.82;2.75;;;;;;;10.38;100.00;101759.34;6085529;19;20010;-75
2024/03/19 06:49:59;;;;;;;6.10;2.97;;;;;;;10.41;100.00;101763.66;6087069;19;20006;-72
2024/03/19 06:52:04;;;;;;;6.00;2.83;;;;;;;10.44;100.00;101768.84;6086132;19;20253;-74
2024/03/19 06:54:08;;;;;;;3.67;2.15;;;;;;;10.43;100.00;101767.97;6085499;19;20455;-74
2024/03/19 06:56:13;;;;;;;7.78;3.00;;;;;;;10.46;100.00;101767.03;6083869;19;20010;-73
2024/03/19 06:58:17;;;;;;;11.45;2.78;;;;;;;10.48;100.00;101765.25;6085409;19;20014;-72
2024/03/19 07:00:22;;;;;;;7.05;2.58;;;;;;;10.47;100.00;101769.63;6084798;19;20011;-72
2024/03/19 07:02:28;;;;;;;8.23;2.90;;;;;;;10.48;100.00;101770.50;6081884;19;20143;-73
2024/03/19 07:04:35;;;;;;;8.13;2.88;;;;;;;10.49;100.00;101761.72;6085634;19;20352;-73
2024/03/19 07:06:41;;;;;;;5.25;2.28;;;;;;;10.50;100.00;101761.66;6087366;19;20046;-72
2024/03/19 07:08:47;;;;;;;5.22;2.63;;;;;;;10.53;100.00;101761.59;6086331;19;20010;-75
2024/03/19 07:10:48;;;;;;;4.05;2.25;;;;;;;10.54;100.00;101768.56;6086075;19;20506;-75
2024/03/19 07:12:52;;;;;;;4.93;2.60;;;;;;;10.53;100.00;101765.97;6085124;19;20336;-74
2024/03/19 07:14:55;;;;;;;7.25;3.28;;;;;;;10.59;100.00;101768.47;6083137;19;20269;-73
2024/03/19 07:16:59;;;;;;;5.45;2.72;;;;;;;10.61;100.00;101771.91;6081178;19;20018;-71
2024/03/19 07:19:05;;;;;;;6.13;2.45;;;;;;;10.60;100.00;101772.78;6085276;19;20119;-74
2024/03/19 07:21:12;;;;;;;7.75;2.60;;;;;;;10.61;100.00;101769.28;6082254;19;20026;-73
2024/03/19 07:23:18;;;;;;;5.57;2.35;;;;;;;10.62;100.00;101768.38;6084794;19;20030;-73
2024/03/19 07:25:20;;;;;;;6.65;2.22;;;;;;;10.67;100.00;101765.63;6085044;19;20050;-73
2024/03/19 07:27:27;;;;;;;3.43;2.20;;;;;;;10.71;100.00;101775.16;6084966;19;20014;-73
2024/03/19 07:29:31;;;;;;;5.82;2.83;;;;;;;10.67;100.00;101770.88;6084977;19;20283;-71
2024/03/19 07:31:41;;;;;;;4.60;2.50;;;;;;;10.76;100.00;101773.25;6085292;19;20006;-71
2024/03/19 07:33:42;;;;;;;6.95;2.20;;;;;;;10.76;100.00;101778.53;6082847;19;20013;-72
2024/03/19 07:35:46;;;;;;;8.88;2.80;;;;;;;10.81;100.00;101767.88;6084359;19;20372;-73
2024/03/19 07:37:53;;;;;;;4.72;2.20;;;;;;;10.83;100.00;101772.22;6083089;19;20013;-73
2024/03/19 07:39:55;;;;;;;5.88;2.85;;;;;;;10.81;100.00;101771.38;6083556;19;20011;-74
2024/03/19 07:41:59;;;;;;;6.70;3.13;;;;;;;10.84;100.00;101773.91;6082785;19;20336;-74
2024/03/19 07:44:02;;;;;;;6.00;3.00;;;;;;;10.88;100.00;101769.47;6084440;19;20014;-75
2024/03/19 07:46:09;;;;;;;9.18;3.38;;;;;;;10.91;100.00;101774.63;6085185;19;20002;-74
2024/03/19 07:48:15;;;;;;;7.68;3.55;;;;;;;10.90;100.00;101770.25;6084934;19;20007;-74
2024/03/19 07:50:23;;;;;;;7.63;3.58;;;;;;;10.86;100.00;101777.38;6082278;19;20003;-72
2024/03/19 07:52:27;;;;;;;8.52;3.90;;;;;;;10.85;100.00;101770.41;6082342;19;20229;-72
2024/03/19 07:54:33;;;;;;;8.02;4.05;;;;;;;10.86;100.00;101773.88;6086759;19;20014;-73
2024/03/19 07:56:41;;;;;;;8.07;3.35;;;;;;;10.87;100.00;101773.84;6084845;19;20034;-74
2024/03/19 07:58:46;;;;;;;7.68;3.60;;;;;;;10.87;100.00;101768.56;6085199;19;20054;-73
2024/03/19 08:00:50;;;;;;;11.30;3.42;;;;;;;10.89;100.00;101776.44;6084264;19;20014;-73
2024/03/19 08:02:51;;;;;;;7.65;3.58;;;;;;;10.89;100.00;101773.81;6085894;19;20010;-73
2024/03/19 08:04:56;;;;;;;9.65;4.00;;;;;;;10.90;100.00;101781.66;6080248;19;20014;-73
2024/03/19 08:07:00;;;;;;;10.27;4.28;;;;;;;10.96;100.00;101773.59;6079252;19;20357;-74
2024/03/19 08:09:05;;;;;;;8.77;4.32;;;;;;;11.03;100.00;101781.31;6084401;19;20015;-72
2024/03/19 08:11:14;;;;;;;7.97;4.00;;;;;;;11.03;100.00;101778.69;6084091;19;20047;-73
2024/03/19 08:13:21;;;;;;;10.27;4.40;;;;;;;11.10;100.00;101785.50;6084071;19;20011;-74
2024/03/19 08:15:25;;;;;;;11.65;3.92;;;;;;;11.07;100.00;101785.59;6083997;19;20537;-75
2024/03/19 08:17:29;;;;;;;8.88;4.32;;;;;;;11.15;100.00;101780.97;6085570;19;20014;-75
2024/03/19 08:19:33;;;;;;;9.20;4.15;;;;;;;11.20;100.00;101781.72;6083139;19;20007;-75
2024/03/19 08:21:35;;;;;;;7.70;3.72;;;;;;;11.33;100.00;101780.47;6048029;19;20024;-74
2024/03/19 08:23:40;;;;;;;8.05;4.00;;;;;;;11.37;100.00;101781.22;6023145;19;20046;-73
2024/03/19 08:25:44;;;;;;;6.93;3.75;;;;;;;11.42;100.00;101790.72;6082537;19;20013;-72
2024/03/19 08:27:51;;;;;;;9.88;4.35;;;;;;;11.45;100.00;101792.41;6083195;19;20066;-76
2024/03/19 08:29:55;;;;;;;9.52;4.28;;;;;;;11.43;100.00;101789.81;6082196;19;20281;-74
2024/03/19 08:31:59;;;;;;;10.38;4.07;;;;;;;11.39;100.00;101787.31;6085748;19;20014;-74
2024/03/19 08:34:05;;;;;;;7.85;3.85;;;;;;;11.41;100.00;101785.50;6083738;19;20038;-76
2024/03/19 08:36:10;;;;;;;7.10;3.45;;;;;;;11.46;100.00;101780.97;6083885;19;20015;-74
2024/03/19 08:38:14;;;;;;;8.25;3.63;;;;;;;11.50;100.00;101793.13;6084097;19;20047;-80
2024/03/19 08:40:20;;;;;;;8.68;4.25;;;;;;;11.54;100.00;101791.28;6086647;19;20054;-80
2024/03/19 08:42:27;;;;;;;9.77;4.03;;;;;;;11.56;100.00;101786.84;6081491;19;20617;-80
2024/03/19 08:44:33;;;;;;;10.02;4.00;;;;;;;11.62;100.00;101791.91;6083926;19;20472;-75
2024/03/19 08:46:37;;;;;;;6.32;3.42;;;;;;;11.64;100.00;101787.47;6078047;19;20007;-74
2024/03/19 08:48:38;;;;;;;7.72;3.63;;;;;;;11.67;100.00;101797.91;6081505;19;20087;-74
2024/03/19 08:50:42;;;;;;;7.85;3.22;;;;;;;11.82;100.00;101792.19;6080039;19;20490;-74
2024/03/19 08:52:46;;;;;;;6.90;3.15;;;;;;;11.89;100.00;101787.63;6078015;19;20419;-75
2024/03/19 08:54:48;;;;;;;8.27;3.53;;;;;;;11.98;100.00;101791.72;6083987;19;20022;-75
2024/03/19 08:56:54;;;;;;;7.65;3.72;;;;;;;12.04;100.00;101783.66;6083992;19;20034;-74
2024/03/19 08:58:57;;;;;;;10.20;3.88;;;;;;;12.07;100.00;101786.19;6083149;19;20508;-74
2024/03/19 09:01:04;;;;;;;10.40;3.70;;;;;;;12.20;100.00;101782.25;6080722;19;20010;-77
2024/03/19 09:03:10;;;;;;;8.05;3.58;;;;;;;12.32;100.00;101790.66;6081083;19;20545;-74
2024/03/19 09:05:14;;;;;;;11.23;3.85;;;;;;;12.35;100.00;101790.56;6082085;19;20006;-73
2024/03/19 09:07:18;;;;;;;7.50;3.85;;;;;;;12.39;100.00;101784.28;6082080;19;20543;-78
2024/03/19 09:09:22;;;;;;;7.50;3.33;;;;;;;12.45;100.00;101789.34;6085738;19;20277;-76
2024/03/19 09:11:31;;;;;;;7.93;3.25;;;;;;;12.62;100.00;101794.94;6088062;19;20006;-74
2024/03/19 09:13:35;;;;;;;6.68;3.58;;;;;;;12.65;100.00;101794.81;6084890;19;20018;-74
2024/03/19 09:15:39;;;;;;;8.80;3.53;;;;;;;12.81;100.00;101808.34;6086168;19;20099;-73
2024/03/19 09:17:46;;;;;;;5.90;2.88;;;;;;;12.97;100.00;101795.47;6085124;19;20011;-74
2024/03/19 09:19:50;;;;;;;7.65;3.22;;;;;;;13.10;100.00;101799.41;6084471;19;20391;-73
2024/03/19 09:21:54;;;;;;;8.35;3.50;;;;;;;13.12;100.00;101800.22;6084610;19;20011;-74
2024/03/19 09:23:58;;;;;;;8.75;3.30;;;;;;;13.24;100.00;101792.78;6082716;19;20018;-75
2024/03/19 09:26:02;;;;;;;6.40;3.30;;;;;;;13.28;100.00;101797.06;6085173;19;20066;-75
2024/03/19 09:28:06;;;;;;;8.25;3.70;;;;;;;13.21;100.00;101799.03;6085399;19;20401;-73
2024/03/19 09:30:12;;;;;;;7.90;3.25;;;;;;;13.13;100.00;101796.66;6084668;19;20652;-74
2024/03/19 09:32:16;;;;;;;8.95;3.38;;;;;;;13.18;100.00;101801.78;6082124;19;20013;-73
2024/03/19 09:34:23;;;;;;;10.70;3.70;;;;;;;13.23;100.00;101797.19;6083043;19;20438;-73
2024/03/19 09:36:27;;;;;;;9.68;3.30;;;;;;;13.21;100.00;101799.03;6074992;19;20007;-73